createdAt,value
2023-03-14T00:01:27.164Z,13.93
2023-03-14T00:04:01.116Z,11.90
2023-03-14T00:06:34.414Z,15.48
2023-03-14T00:09:08.925Z,15.85
2023-03-14T00:11:41.951Z,17.38
2023-03-14T00:16:50.272Z,14.05
2023-03-14T00:19:23.337Z,12.52
2023-03-14T00:21:56.405Z,12.75
2023-03-14T00:24:30.994Z,15.43
2023-03-14T00:27:04.102Z,19.88
2023-03-14T00:32:09.661Z,18.67
2023-03-14T00:37:15.606Z,25.17
2023-03-14T00:39:49.898Z,22.08
2023-03-14T00:42:22.783Z,20.27
2023-03-14T00:44:57.328Z,24.75
2023-03-14T00:47:30.172Z,19.58
2023-03-14T00:50:03.416Z,18.52
2023-03-14T00:52:36.287Z,27.23
2023-03-14T00:57:43.878Z,19.30
2023-03-14T01:02:50.241Z,14.52
2023-03-14T01:05:24.182Z,19.52
2023-03-14T01:07:57.020Z,20.33
2023-03-14T01:10:32.059Z,16.83
2023-03-14T01:13:05.048Z,16.88
2023-03-14T01:18:11.159Z,20.35
2023-03-14T01:20:44.144Z,15.43
2023-03-14T01:25:51.166Z,14.40
2023-03-14T01:28:26.328Z,19.08
2023-03-14T01:31:04.587Z,15.15
2023-03-14T01:33:39.383Z,14.00
2023-03-14T01:36:13.686Z,13.82
2023-03-14T01:38:48.821Z,18.02
2023-03-14T01:41:26.568Z,9.48
2023-03-14T01:44:01.329Z,18.23
2023-03-14T01:46:42.473Z,14.60
2023-03-14T01:49:22.816Z,13.25
2023-03-14T01:52:09.186Z,14.48
2023-03-14T01:54:44.946Z,13.50
2023-03-14T01:57:22.653Z,15.65
2023-03-14T02:00:00.005Z,17.17
2023-03-14T02:02:33.564Z,14.88
2023-03-14T02:05:07.536Z,15.73
2023-03-14T02:07:50.950Z,15.30
2023-03-14T02:10:30.774Z,13.00
2023-03-14T02:13:07.718Z,13.32
2023-03-14T02:16:16.438Z,10.73
2023-03-14T02:19:01.144Z,11.60
2023-03-14T02:21:44.830Z,14.90
2023-03-14T02:24:27.534Z,12.35
2023-03-14T02:27:11.384Z,14.38
2023-03-14T02:29:54.313Z,15.70
2023-03-14T02:32:29.990Z,11.00
2023-03-14T02:35:08.775Z,11.65
2023-03-14T02:37:45.928Z,10.63
2023-03-14T02:40:19.067Z,13.75
2023-03-14T02:42:57.133Z,10.93
2023-03-14T02:45:52.280Z,14.90
2023-03-14T02:48:31.963Z,9.90
2023-03-14T02:51:05.656Z,10.85
2023-03-14T02:53:40.790Z,11.25
2023-03-14T02:56:17.540Z,7.47
2023-03-14T02:58:52.792Z,11.52
2023-03-14T03:01:42.516Z,11.98
2023-03-14T03:04:15.700Z,11.60
2023-03-14T03:06:52.750Z,11.05
2023-03-14T03:09:26.466Z,11.15
2023-03-14T03:11:59.499Z,15.20
2023-03-14T03:14:38.525Z,14.85
2023-03-14T03:17:12.012Z,13.88
2023-03-14T03:19:45.696Z,15.30
2023-03-14T03:22:19.709Z,16.83
2023-03-14T03:24:52.965Z,13.65
2023-03-14T03:27:26.938Z,13.05
2023-03-14T03:30:02.491Z,12.65
2023-03-14T03:32:39.220Z,21.08
2023-03-14T03:35:12.649Z,17.33
2023-03-14T03:37:46.453Z,13.40
2023-03-14T03:40:20.040Z,11.57
2023-03-14T03:42:53.811Z,8.02
2023-03-14T03:45:29.091Z,11.48
2023-03-14T03:48:03.844Z,16.02
2023-03-14T03:50:37.896Z,12.85
2023-03-14T03:53:13.711Z,11.73
2023-03-14T03:55:47.474Z,13.05
2023-03-14T03:58:21.740Z,11.05
2023-03-14T04:00:56.735Z,15.63
2023-03-14T04:03:30.491Z,14.30
2023-03-14T04:06:06.770Z,16.13
2023-03-14T04:08:42.785Z,11.38
2023-03-14T04:11:20.195Z,11.10
2023-03-14T04:13:59.797Z,14.15
2023-03-14T04:16:34.991Z,11.10
2023-03-14T04:19:18.745Z,10.95
2023-03-14T04:21:53.460Z,11.57
2023-03-14T04:24:28.401Z,11.90
2023-03-14T04:27:03.740Z,10.77
2023-03-14T04:29:37.387Z,15.02
2023-03-14T04:32:12.283Z,12.98
2023-03-14T04:34:46.056Z,9.93
2023-03-14T04:37:19.576Z,11.23
2023-03-14T04:39:53.181Z,12.45
2023-03-14T04:42:35.239Z,12.70
2023-03-14T04:45:11.741Z,14.65
2023-03-14T04:47:48.418Z,12.10
2023-03-14T04:50:25.088Z,12.75
2023-03-14T04:52:58.079Z,11.48
2023-03-14T04:55:32.056Z,8.73
2023-03-14T04:58:05.801Z,13.93
2023-03-14T05:00:39.938Z,12.50
2023-03-14T05:03:34.033Z,7.70
2023-03-14T05:06:27.741Z,8.30
2023-03-14T05:09:18.604Z,12.40
2023-03-14T05:12:15.038Z,7.78
2023-03-14T05:15:11.926Z,6.30
2023-03-14T05:17:56.511Z,7.90
2023-03-14T05:20:46.381Z,8.25
2023-03-14T05:23:32.324Z,14.77
2023-03-14T05:26:28.795Z,11.75
2023-03-14T05:29:28.226Z,10.77
2023-03-14T05:32:25.520Z,7.93
2023-03-14T05:35:02.721Z,15.93
2023-03-14T05:37:49.117Z,7.47
2023-03-14T05:40:41.746Z,9.95
2023-03-14T05:43:34.878Z,12.88
2023-03-14T05:46:25.491Z,9.93
2023-03-14T05:49:18.557Z,7.70
2023-03-14T05:52:10.276Z,13.23
2023-03-14T05:55:11.477Z,13.43
2023-03-14T05:58:14.417Z,8.95
2023-03-14T06:01:05.221Z,11.77
2023-03-14T06:03:58.656Z,9.70
2023-03-14T06:06:34.528Z,6.22
2023-03-14T06:09:08.587Z,6.72
2023-03-14T06:11:47.586Z,10.07
2023-03-14T06:14:20.918Z,4.75
2023-03-14T06:16:56.464Z,9.23
2023-03-14T06:19:34.917Z,6.90
2023-03-14T06:22:08.642Z,7.05
2023-03-14T06:24:44.878Z,11.85
2023-03-14T06:27:20.125Z,7.63
2023-03-14T06:29:54.226Z,7.13
2023-03-14T06:32:28.519Z,13.50
2023-03-14T06:35:19.042Z,12.43
2023-03-14T06:37:52.818Z,13.90
2023-03-14T06:40:33.644Z,10.63
2023-03-14T06:43:17.542Z,7.78
2023-03-14T06:45:53.793Z,10.00
2023-03-14T06:48:30.012Z,10.10
2023-03-14T06:51:05.905Z,5.10
2023-03-14T06:53:40.896Z,9.50
2023-03-14T06:56:15.913Z,6.82
2023-03-14T06:58:50.729Z,7.38
2023-03-14T07:01:32.142Z,9.68
2023-03-14T07:04:12.490Z,9.07
2023-03-14T07:06:50.162Z,6.40
2023-03-14T07:09:23.228Z,6.38
2023-03-14T07:12:02.104Z,6.88
2023-03-14T07:14:38.712Z,5.68
2023-03-14T07:17:12.218Z,9.20
2023-03-14T07:19:45.071Z,6.22
2023-03-14T07:24:54.938Z,4.93
2023-03-14T07:27:29.825Z,9.20
2023-03-14T07:30:09.133Z,6.30
2023-03-14T07:32:42.638Z,8.65
2023-03-14T07:35:23.492Z,7.60
2023-03-14T07:37:56.898Z,12.73
2023-03-14T07:40:37.413Z,15.68
2023-03-14T07:43:12.616Z,10.73
2023-03-14T07:45:59.144Z,14.60
2023-03-14T07:48:32.900Z,9.93
2023-03-14T07:51:06.581Z,10.52
2023-03-14T07:53:40.532Z,10.60
2023-03-14T07:56:13.846Z,10.90
2023-03-14T07:58:47.242Z,8.20
2023-03-14T08:01:21.577Z,17.50
2023-03-14T08:03:54.997Z,10.35
2023-03-14T08:06:28.048Z,15.32
2023-03-14T08:11:33.960Z,7.03
2023-03-14T08:14:07.589Z,9.52
2023-03-14T08:17:10.311Z,11.13
2023-03-14T08:19:46.436Z,8.55
2023-03-14T08:22:20.303Z,9.45
2023-03-14T08:24:53.522Z,10.00
2023-03-14T08:27:27.119Z,10.02
2023-03-14T08:30:00.498Z,9.77
2023-03-14T08:32:40.113Z,6.45
2023-03-14T08:35:21.872Z,5.85
2023-03-14T08:37:55.854Z,7.20
2023-03-14T08:40:29.995Z,7.80
2023-03-14T08:43:03.234Z,8.40
2023-03-14T08:45:36.408Z,9.65
2023-03-14T08:48:11.061Z,5.75
2023-03-14T08:50:44.943Z,11.25
2023-03-14T08:53:20.292Z,8.18
2023-03-14T08:55:56.658Z,4.82
2023-03-14T08:58:30.768Z,7.60
2023-03-14T09:01:04.173Z,7.13
2023-03-14T09:03:39.704Z,13.85
2023-03-14T09:06:13.255Z,13.13
2023-03-14T09:08:47.084Z,13.32
2023-03-14T09:11:20.841Z,11.10
2023-03-14T09:13:54.103Z,11.50
2023-03-14T09:16:29.443Z,12.90
2023-03-14T09:19:04.103Z,17.63
2023-03-14T09:21:38.734Z,16.30
2023-03-14T09:24:14.112Z,15.57
2023-03-14T09:26:47.231Z,10.23
2023-03-14T09:29:36.402Z,18.67
2023-03-14T09:32:10.420Z,22.67
2023-03-14T09:34:45.554Z,14.82
2023-03-14T09:37:18.911Z,18.15
2023-03-14T09:39:52.371Z,13.15
2023-03-14T09:42:28.957Z,14.05
2023-03-14T09:45:05.778Z,16.88
2023-03-14T09:47:46.301Z,21.27
2023-03-14T09:50:28.866Z,11.88
2023-03-14T09:53:05.674Z,15.02
2023-03-14T09:55:39.044Z,20.88
2023-03-14T09:58:16.446Z,15.98
2023-03-14T10:00:57.108Z,27.95
2023-03-14T10:03:38.298Z,17.48
2023-03-14T10:06:16.061Z,20.90
2023-03-14T10:08:49.644Z,19.55
2023-03-14T10:11:23.116Z,16.73
2023-03-14T10:14:09.341Z,26.70
2023-03-14T10:16:44.850Z,23.98
2023-03-14T10:19:19.156Z,32.40
2023-03-14T10:21:56.816Z,19.70
2023-03-14T10:24:36.840Z,22.92
2023-03-14T10:27:22.410Z,19.98
2023-03-14T10:29:59.574Z,19.17
2023-03-14T10:32:35.916Z,26.50
2023-03-14T10:35:21.680Z,20.35
2023-03-14T10:37:59.964Z,26.88
2023-03-14T10:40:35.314Z,24.88
2023-03-14T10:43:15.999Z,19.35
2023-03-14T10:45:58.913Z,22.65
2023-03-14T10:51:10.167Z,28.20
2023-03-14T10:53:49.336Z,28.02
2023-03-14T10:56:23.996Z,19.17
2023-03-14T10:58:59.848Z,27.33
2023-03-14T11:01:44.475Z,20.63
2023-03-14T11:04:33.054Z,20.08
2023-03-14T11:07:15.532Z,23.73
2023-03-14T11:09:57.524Z,24.50
2023-03-14T11:12:48.746Z,22.85
2023-03-14T11:15:31.698Z,18.30
2023-03-14T11:18:30.121Z,18.50
2023-03-14T11:21:11.282Z,18.13
2023-03-14T11:23:52.361Z,16.95
2023-03-14T11:26:39.408Z,15.40
2023-03-14T11:29:22.773Z,19.77
2023-03-14T11:31:57.919Z,17.98
2023-03-14T11:34:38.095Z,22.30
2023-03-14T11:37:19.310Z,23.15
2023-03-14T11:40:00.062Z,19.25
2023-03-14T11:42:36.405Z,18.55
2023-03-14T11:45:20.002Z,19.17
2023-03-14T11:48:00.598Z,16.92
2023-03-14T11:50:36.649Z,19.98
2023-03-14T11:53:16.299Z,18.05
2023-03-14T11:55:50.940Z,16.85
2023-03-14T11:58:29.163Z,14.07
2023-03-14T12:01:14.569Z,18.38
2023-03-14T12:03:56.219Z,19.40
2023-03-14T12:06:46.233Z,18.33
2023-03-14T12:09:22.288Z,17.77
2023-03-14T12:12:02.039Z,21.08
2023-03-14T12:14:38.750Z,14.45
2023-03-14T12:17:22.695Z,14.52
2023-03-14T12:20:07.077Z,18.95
2023-03-14T12:22:45.614Z,18.05
2023-03-14T12:25:21.555Z,21.70
2023-03-14T12:28:22.132Z,15.23
2023-03-14T12:30:56.622Z,12.90
2023-03-14T12:33:33.446Z,15.82
2023-03-14T12:36:22.088Z,10.52
2023-03-14T12:39:18.349Z,11.80
2023-03-14T12:42:04.180Z,11.60
2023-03-14T12:44:46.676Z,9.93
2023-03-14T12:47:55.261Z,11.25
2023-03-14T12:50:34.711Z,9.10
2023-03-14T12:53:53.334Z,14.95
2023-03-14T12:56:39.340Z,11.50
2023-03-14T12:59:41.835Z,11.52
2023-03-14T13:02:42.004Z,12.35
2023-03-14T13:05:20.563Z,5.80
2023-03-14T13:08:09.781Z,15.60
2023-03-14T13:10:50.473Z,8.43
2023-03-14T13:13:26.910Z,14.35
2023-03-14T13:16:04.848Z,19.98
2023-03-14T13:18:41.535Z,10.30
2023-03-14T13:21:20.616Z,15.05
2023-03-14T13:23:59.769Z,15.80
2023-03-14T13:26:41.546Z,9.00
2023-03-14T13:29:21.099Z,11.70
2023-03-14T13:31:57.983Z,12.02
2023-03-14T13:34:32.788Z,11.07
2023-03-14T13:37:07.371Z,16.23
2023-03-14T13:39:43.109Z,13.30
2023-03-14T13:42:19.185Z,14.48
2023-03-14T13:44:55.403Z,12.55
2023-03-14T13:47:29.600Z,10.10
2023-03-14T13:50:02.792Z,12.15
2023-03-14T13:52:40.862Z,15.82
2023-03-14T13:55:18.464Z,11.20
2023-03-14T13:57:55.639Z,11.10
2023-03-14T14:00:31.150Z,13.35
2023-03-14T14:03:04.481Z,10.50
2023-03-14T14:05:41.388Z,10.00
2023-03-14T14:08:59.195Z,9.70
2023-03-14T14:11:59.900Z,11.13
2023-03-14T14:14:47.290Z,9.60
2023-03-14T14:17:29.781Z,10.77
2023-03-14T14:20:06.916Z,10.77
2023-03-14T14:22:40.757Z,12.43
2023-03-14T14:25:18.034Z,16.10
2023-03-14T14:27:52.828Z,12.80
2023-03-14T14:30:32.274Z,14.30
2023-03-14T14:33:21.010Z,10.80
2023-03-14T14:35:58.224Z,8.25
2023-03-14T14:38:31.651Z,11.65
2023-03-14T14:41:06.721Z,13.90
2023-03-14T14:43:43.596Z,12.90
2023-03-14T14:46:22.713Z,11.18
2023-03-14T14:49:07.009Z,12.43
2023-03-14T14:51:44.048Z,11.25
2023-03-14T14:54:18.886Z,9.38
2023-03-14T14:56:54.706Z,11.15
2023-03-14T14:59:30.283Z,16.02
2023-03-14T15:02:07.054Z,13.10
2023-03-14T15:04:42.441Z,10.50
2023-03-14T15:07:18.754Z,9.20
2023-03-14T15:09:52.025Z,13.05
2023-03-14T15:12:26.524Z,12.57
2023-03-14T15:14:59.778Z,8.02
2023-03-14T15:17:33.414Z,13.65
2023-03-14T15:20:14.339Z,10.13
2023-03-14T15:22:48.566Z,14.35
2023-03-14T15:25:47.327Z,14.18
2023-03-14T15:28:21.367Z,11.65
2023-03-14T15:31:02.435Z,8.75
2023-03-14T15:33:38.234Z,13.93
2023-03-14T15:36:25.120Z,8.07
2023-03-14T15:39:00.937Z,7.93
2023-03-14T15:41:34.468Z,7.65
2023-03-14T15:44:09.535Z,12.63
2023-03-14T15:46:42.635Z,7.10
2023-03-14T15:49:15.799Z,9.98
2023-03-14T15:51:51.040Z,11.88
2023-03-14T15:54:24.204Z,8.68
2023-03-14T15:56:57.353Z,11.05
2023-03-14T16:00:07.934Z,10.05
2023-03-14T16:02:42.980Z,4.15
2023-03-14T16:05:16.910Z,13.23
2023-03-14T16:07:52.387Z,11.95
2023-03-14T16:10:26.256Z,11.77
2023-03-14T16:13:00.600Z,6.38
2023-03-14T16:15:33.935Z,12.52
2023-03-14T16:18:21.166Z,13.13
2023-03-14T16:20:59.747Z,7.45
2023-03-14T16:23:33.386Z,10.63
2023-03-14T16:26:08.123Z,10.27
2023-03-14T16:28:41.764Z,11.88
2023-03-14T16:31:17.451Z,11.15
2023-03-14T16:33:52.250Z,15.98
2023-03-14T16:36:25.937Z,10.50
2023-03-14T16:39:20.552Z,13.20
2023-03-14T16:41:59.251Z,11.65
2023-03-14T16:44:48.082Z,12.23
2023-03-14T16:47:46.164Z,9.70
2023-03-14T16:50:21.746Z,9.60
2023-03-14T17:15:18.898Z,11.25
2023-03-14T17:17:52.558Z,8.27
2023-03-14T17:20:29.111Z,12.80
2023-03-14T17:23:02.973Z,13.90
2023-03-14T17:25:39.334Z,12.93
2023-03-14T17:28:58.049Z,10.60
2023-03-14T17:31:40.211Z,8.23
2023-03-14T17:34:13.997Z,11.32
2023-03-14T17:36:47.797Z,10.48
2023-03-14T17:39:21.647Z,6.90
2023-03-14T17:41:55.709Z,9.65
2023-03-14T17:44:30.074Z,6.68
2023-03-14T17:47:05.483Z,7.82
2023-03-14T17:49:41.968Z,10.25
2023-03-14T17:52:19.448Z,6.40
2023-03-14T17:54:55.178Z,12.30
2023-03-14T17:57:30.018Z,6.53
2023-03-14T18:00:04.596Z,7.28
2023-03-14T18:02:45.966Z,10.82
2023-03-14T18:05:19.597Z,6.22
2023-03-14T18:07:55.774Z,6.85
2023-03-14T18:10:46.753Z,12.68
2023-03-14T18:13:20.459Z,6.72
2023-03-14T18:15:54.738Z,5.13
2023-03-14T18:18:33.014Z,8.73
2023-03-14T18:21:08.087Z,7.63
2023-03-14T18:23:44.952Z,9.60
2023-03-14T18:26:20.360Z,6.03
2023-03-14T18:28:55.542Z,9.73
2023-03-14T18:31:37.324Z,12.25
2023-03-14T18:34:24.681Z,6.93
2023-03-14T18:37:03.460Z,7.53
2023-03-14T18:39:38.145Z,7.50
2023-03-14T21:35:47.027Z,4.72
2023-03-14T21:38:43.054Z,6.03
2023-03-14T21:41:43.107Z,4.90
2023-03-14T21:47:31.183Z,5.30
2023-03-14T21:50:29.342Z,6.68
2023-03-14T21:53:16.259Z,9.32
2023-03-14T21:55:58.832Z,6.55
2023-03-14T21:58:39.159Z,4.40
2023-03-14T22:01:26.831Z,5.38
2023-03-14T22:04:12.357Z,5.80
2023-03-14T22:06:57.523Z,7.20
2023-03-14T22:09:57.287Z,4.32
2023-03-14T22:12:37.929Z,4.32
2023-03-14T22:15:15.136Z,4.63
2023-03-14T22:17:52.708Z,3.22
2023-03-14T22:20:32.177Z,4.95
2023-03-14T22:23:14.713Z,6.45
2023-03-14T22:25:56.188Z,6.63
2023-03-14T22:28:40.918Z,7.07
2023-03-14T22:31:25.266Z,3.53
2023-03-14T22:34:04.409Z,10.02
2023-03-14T22:36:44.482Z,8.88
2023-03-14T22:39:30.797Z,3.63
2023-03-14T22:42:26.450Z,4.13
2023-03-14T22:45:13.363Z,2.35
2023-03-14T22:48:05.017Z,3.45
2023-03-14T22:50:41.315Z,5.65
2023-03-14T22:53:27.416Z,6.45
2023-03-14T22:56:13.053Z,3.95
2023-03-14T22:58:53.577Z,3.05
2023-03-14T23:01:35.321Z,4.80
2023-03-14T23:04:15.047Z,4.30
2023-03-14T23:07:10.201Z,2.72
2023-03-14T23:09:53.655Z,4.63
2023-03-14T23:12:38.896Z,3.50
2023-03-14T23:15:26.125Z,4.50
2023-03-14T23:18:28.467Z,5.32
2023-03-14T23:21:17.265Z,2.70
2023-03-14T23:24:08.169Z,5.00
2023-03-14T23:26:53.339Z,6.63
2023-03-14T23:29:35.306Z,6.50
2023-03-14T23:32:15.775Z,5.20
2023-03-14T23:34:53.146Z,6.15
2023-03-14T23:37:30.858Z,4.70
2023-03-14T23:40:11.131Z,4.32
2023-03-14T23:42:57.967Z,7.30
2023-03-14T23:45:41.719Z,4.40
2023-03-14T23:48:20.004Z,3.65
2023-03-14T23:50:59.390Z,3.83
2023-03-14T23:53:50.145Z,5.45
2023-03-14T23:56:31.884Z,5.03
2023-03-14T23:59:18.592Z,6.07
